sensor_id;sensor_type;location;lat;lon;timestamp;P1;durP1;ratioP1;P2;durP2;ratioP2
74528;SDS011;63009;52.584;5.932;2024-03-07T00:00:31;36.50;;;16.88;;
74528;SDS011;63009;52.584;5.932;2024-03-07T00:02:57;39.00;;;17.80;;
74528;SDS011;63009;52.584;5.932;2024-03-07T00:05:23;37.90;;;17.60;;
74528;SDS011;63009;52.584;5.932;2024-03-07T00:07:49;43.92;;;19.08;;
74528;SDS011;63009;52.584;5.932;2024-03-07T00:10:15;40.65;;;17.75;;
74528;SDS011;63009;52.584;5.932;2024-03-07T00:12:42;34.03;;;17.17;;
74528;SDS011;63009;52.584;5.932;2024-03-07T00:15:09;31.58;;;15.65;;
74528;SDS011;63009;52.584;5.932;2024-03-07T00:17:38;32.92;;;16.48;;
74528;SDS011;63009;52.584;5.932;2024-03-07T00:20:04;34.67;;;16.63;;
74528;SDS011;63009;52.584;5.932;2024-03-07T00:22:34;33.70;;;15.85;;
74528;SDS011;63009;52.584;5.932;2024-03-07T00:25:00;34.72;;;15.63;;
74528;SDS011;63009;52.584;5.932;2024-03-07T00:27:26;38.17;;;17.27;;
74528;SDS011;63009;52.584;5.932;2024-03-07T00:29:51;31.65;;;15.30;;
74528;SDS011;63009;52.584;5.932;2024-03-07T00:32:20;31.75;;;14.10;;
74528;SDS011;63009;52.584;5.932;2024-03-07T00:34:46;30.60;;;14.25;;
74528;SDS011;63009;52.584;5.932;2024-03-07T00:37:12;32.47;;;14.90;;
74528;SDS011;63009;52.584;5.932;2024-03-07T00:39:37;39.33;;;17.02;;
74528;SDS011;63009;52.584;5.932;2024-03-07T00:42:03;33.65;;;16.73;;
74528;SDS011;63009;52.584;5.932;2024-03-07T00:44:28;33.47;;;15.52;;
74528;SDS011;63009;52.584;5.932;2024-03-07T00:46:54;32.42;;;15.10;;
74528;SDS011;63009;52.584;5.932;2024-03-07T00:49:19;36.45;;;15.57;;
74528;SDS011;63009;52.584;5.932;2024-03-07T00:51:45;35.75;;;16.42;;
74528;SDS011;63009;52.584;5.932;2024-03-07T00:54:10;38.40;;;17.48;;
74528;SDS011;63009;52.584;5.932;2024-03-07T00:56:38;39.80;;;19.00;;
74528;SDS011;63009;52.584;5.932;2024-03-07T00:59:04;41.78;;;18.45;;
74528;SDS011;63009;52.584;5.932;2024-03-07T01:01:30;36.88;;;17.05;;
74528;SDS011;63009;52.584;5.932;2024-03-07T01:03:56;38.70;;;17.20;;
74528;SDS011;63009;52.584;5.932;2024-03-07T01:06:22;39.83;;;17.97;;
74528;SDS011;63009;52.584;5.932;2024-03-07T01:08:47;39.25;;;18.38;;
74528;SDS011;63009;52.584;5.932;2024-03-07T01:11:13;40.15;;;18.13;;
74528;SDS011;63009;52.584;5.932;2024-03-07T01:13:38;41.53;;;19.17;;
74528;SDS011;63009;52.584;5.932;2024-03-07T01:16:04;46.55;;;21.80;;
74528;SDS011;63009;52.584;5.932;2024-03-07T01:18:31;41.58;;;18.17;;
74528;SDS011;63009;52.584;5.932;2024-03-07T01:23:28;41.13;;;18.27;;
74528;SDS011;63009;52.584;5.932;2024-03-07T01:25:57;45.70;;;21.38;;
74528;SDS011;63009;52.584;5.932;2024-03-07T01:28:24;43.58;;;19.33;;
74528;SDS011;63009;52.584;5.932;2024-03-07T01:30:50;43.33;;;20.02;;
74528;SDS011;63009;52.584;5.932;2024-03-07T01:33:16;45.13;;;19.40;;
74528;SDS011;63009;52.584;5.932;2024-03-07T01:35:41;46.72;;;20.80;;
74528;SDS011;63009;52.584;5.932;2024-03-07T01:38:07;45.80;;;19.77;;
74528;SDS011;63009;52.584;5.932;2024-03-07T01:40:33;49.03;;;22.95;;
74528;SDS011;63009;52.584;5.932;2024-03-07T01:43:01;42.30;;;18.73;;
74528;SDS011;63009;52.584;5.932;2024-03-07T01:45:26;54.30;;;21.10;;
74528;SDS011;63009;52.584;5.932;2024-03-07T01:47:52;42.67;;;19.60;;
74528;SDS011;63009;52.584;5.932;2024-03-07T01:50:17;48.53;;;21.17;;
74528;SDS011;63009;52.584;5.932;2024-03-07T01:52:43;48.83;;;21.60;;
74528;SDS011;63009;52.584;5.932;2024-03-07T01:55:09;45.97;;;21.58;;
74528;SDS011;63009;52.584;5.932;2024-03-07T02:00:03;49.53;;;19.52;;
74528;SDS011;63009;52.584;5.932;2024-03-07T02:02:30;48.10;;;19.98;;
74528;SDS011;63009;52.584;5.932;2024-03-07T02:04:57;49.50;;;21.35;;
74528;SDS011;63009;52.584;5.932;2024-03-07T02:07:23;46.08;;;21.50;;
74528;SDS011;63009;52.584;5.932;2024-03-07T02:09:48;45.25;;;20.80;;
74528;SDS011;63009;52.584;5.932;2024-03-07T02:12:14;47.17;;;22.35;;
74528;SDS011;63009;52.584;5.932;2024-03-07T02:14:39;45.25;;;21.85;;
74528;SDS011;63009;52.584;5.932;2024-03-07T02:17:04;46.90;;;20.58;;
74528;SDS011;63009;52.584;5.932;2024-03-07T02:19:30;49.10;;;21.67;;
74528;SDS011;63009;52.584;5.932;2024-03-07T02:21:57;48.10;;;20.70;;
74528;SDS011;63009;52.584;5.932;2024-03-07T02:24:22;48.75;;;20.38;;
74528;SDS011;63009;52.584;5.932;2024-03-07T02:26:48;44.63;;;20.90;;
74528;SDS011;63009;52.584;5.932;2024-03-07T02:29:14;51.20;;;20.77;;
74528;SDS011;63009;52.584;5.932;2024-03-07T02:31:39;46.42;;;21.42;;
74528;SDS011;63009;52.584;5.932;2024-03-07T02:34:06;47.05;;;20.70;;
74528;SDS011;63009;52.584;5.932;2024-03-07T02:36:35;45.40;;;20.25;;
74528;SDS011;63009;52.584;5.932;2024-03-07T02:39:00;44.35;;;19.23;;
74528;SDS011;63009;52.584;5.932;2024-03-07T02:41:26;48.20;;;20.88;;
74528;SDS011;63009;52.584;5.932;2024-03-07T02:43:52;46.97;;;20.85;;
74528;SDS011;63009;52.584;5.932;2024-03-07T02:46:18;46.85;;;20.25;;
74528;SDS011;63009;52.584;5.932;2024-03-07T02:48:43;48.92;;;21.33;;
74528;SDS011;63009;52.584;5.932;2024-03-07T02:51:09;45.40;;;20.53;;
74528;SDS011;63009;52.584;5.932;2024-03-07T02:53:34;53.33;;;22.05;;
74528;SDS011;63009;52.584;5.932;2024-03-07T02:56:00;48.08;;;22.83;;
74528;SDS011;63009;52.584;5.932;2024-03-07T02:58:25;45.92;;;21.65;;
74528;SDS011;63009;52.584;5.932;2024-03-07T03:00:57;48.92;;;22.02;;
74528;SDS011;63009;52.584;5.932;2024-03-07T03:03:25;44.17;;;20.70;;
74528;SDS011;63009;52.584;5.932;2024-03-07T03:05:53;47.83;;;20.65;;
74528;SDS011;63009;52.584;5.932;2024-03-07T03:08:18;49.20;;;22.13;;
74528;SDS011;63009;52.584;5.932;2024-03-07T03:10:43;44.05;;;21.33;;
74528;SDS011;63009;52.584;5.932;2024-03-07T03:13:09;42.60;;;21.77;;
74528;SDS011;63009;52.584;5.932;2024-03-07T03:15:35;46.15;;;21.25;;
74528;SDS011;63009;52.584;5.932;2024-03-07T03:18:02;45.38;;;20.33;;
74528;SDS011;63009;52.584;5.932;2024-03-07T03:20:28;42.90;;;18.98;;
74528;SDS011;63009;52.584;5.932;2024-03-07T03:23:00;42.53;;;20.48;;
74528;SDS011;63009;52.584;5.932;2024-03-07T03:25:28;42.45;;;19.85;;
74528;SDS011;63009;52.584;5.932;2024-03-07T03:27:53;42.53;;;19.10;;
74528;SDS011;63009;52.584;5.932;2024-03-07T03:30:18;44.40;;;20.50;;
74528;SDS011;63009;52.584;5.932;2024-03-07T03:32:44;39.90;;;19.33;;
74528;SDS011;63009;52.584;5.932;2024-03-07T03:35:11;44.13;;;20.58;;
74528;SDS011;63009;52.584;5.932;2024-03-07T03:37:44;42.45;;;21.30;;
74528;SDS011;63009;52.584;5.932;2024-03-07T03:40:10;42.60;;;21.33;;
74528;SDS011;63009;52.584;5.932;2024-03-07T03:42:37;40.88;;;18.52;;
74528;SDS011;63009;52.584;5.932;2024-03-07T03:45:05;39.63;;;20.98;;
74528;SDS011;63009;52.584;5.932;2024-03-07T03:47:36;40.30;;;18.40;;
74528;SDS011;63009;52.584;5.932;2024-03-07T03:50:06;36.33;;;18.48;;
74528;SDS011;63009;52.584;5.932;2024-03-07T03:52:32;38.15;;;17.23;;
74528;SDS011;63009;52.584;5.932;2024-03-07T03:54:58;37.60;;;19.17;;
74528;SDS011;63009;52.584;5.932;2024-03-07T03:57:27;41.20;;;18.65;;
74528;SDS011;63009;52.584;5.932;2024-03-07T03:59:54;39.78;;;17.40;;
74528;SDS011;63009;52.584;5.932;2024-03-07T04:02:21;37.92;;;18.50;;
74528;SDS011;63009;52.584;5.932;2024-03-07T04:04:49;38.38;;;19.35;;
74528;SDS011;63009;52.584;5.932;2024-03-07T04:07:15;31.80;;;16.73;;
74528;SDS011;63009;52.584;5.932;2024-03-07T04:09:43;35.13;;;17.48;;
74528;SDS011;63009;52.584;5.932;2024-03-07T04:12:10;36.78;;;18.10;;
74528;SDS011;63009;52.584;5.932;2024-03-07T04:14:37;36.20;;;17.92;;
74528;SDS011;63009;52.584;5.932;2024-03-07T04:17:04;35.38;;;16.90;;
74528;SDS011;63009;52.584;5.932;2024-03-07T04:19:31;33.50;;;16.55;;
74528;SDS011;63009;52.584;5.932;2024-03-07T04:21:58;32.72;;;16.30;;
74528;SDS011;63009;52.584;5.932;2024-03-07T04:24:23;34.03;;;16.65;;
74528;SDS011;63009;52.584;5.932;2024-03-07T04:26:48;31.45;;;15.93;;
74528;SDS011;63009;52.584;5.932;2024-03-07T04:29:14;30.83;;;16.43;;
74528;SDS011;63009;52.584;5.932;2024-03-07T04:31:39;37.45;;;18.30;;
74528;SDS011;63009;52.584;5.932;2024-03-07T04:34:04;29.98;;;15.93;;
74528;SDS011;63009;52.584;5.932;2024-03-07T04:36:30;33.33;;;15.75;;
74528;SDS011;63009;52.584;5.932;2024-03-07T04:38:57;33.10;;;16.42;;
74528;SDS011;63009;52.584;5.932;2024-03-07T04:41:22;33.80;;;16.30;;
74528;SDS011;63009;52.584;5.932;2024-03-07T04:43:48;32.42;;;15.65;;
74528;SDS011;63009;52.584;5.932;2024-03-07T04:46:13;35.38;;;17.40;;
74528;SDS011;63009;52.584;5.932;2024-03-07T04:48:39;32.55;;;16.27;;
74528;SDS011;63009;52.584;5.932;2024-03-07T04:51:04;29.05;;;16.05;;
74528;SDS011;63009;52.584;5.932;2024-03-07T04:53:29;33.05;;;15.88;;
74528;SDS011;63009;52.584;5.932;2024-03-07T04:55:55;34.53;;;16.58;;
74528;SDS011;63009;52.584;5.932;2024-03-07T04:58:21;32.00;;;16.42;;
74528;SDS011;63009;52.584;5.932;2024-03-07T05:00:46;30.88;;;14.90;;
74528;SDS011;63009;52.584;5.932;2024-03-07T05:03:12;34.17;;;15.32;;
74528;SDS011;63009;52.584;5.932;2024-03-07T05:05:37;30.00;;;15.48;;
74528;SDS011;63009;52.584;5.932;2024-03-07T05:08:02;33.05;;;15.77;;
74528;SDS011;63009;52.584;5.932;2024-03-07T05:10:29;30.45;;;14.45;;
74528;SDS011;63009;52.584;5.932;2024-03-07T05:12:56;31.50;;;16.15;;
74528;SDS011;63009;52.584;5.932;2024-03-07T05:15:23;32.78;;;16.30;;
74528;SDS011;63009;52.584;5.932;2024-03-07T05:17:50;28.80;;;14.50;;
74528;SDS011;63009;52.584;5.932;2024-03-07T05:20:21;30.70;;;14.90;;
74528;SDS011;63009;52.584;5.932;2024-03-07T05:22:46;36.45;;;15.60;;
74528;SDS011;63009;52.584;5.932;2024-03-07T05:25:18;30.52;;;16.13;;
74528;SDS011;63009;52.584;5.932;2024-03-07T05:27:44;31.08;;;16.23;;
74528;SDS011;63009;52.584;5.932;2024-03-07T05:30:15;29.83;;;15.02;;
74528;SDS011;63009;52.584;5.932;2024-03-07T05:32:42;28.88;;;14.63;;
74528;SDS011;63009;52.584;5.932;2024-03-07T05:35:08;29.73;;;15.00;;
74528;SDS011;63009;52.584;5.932;2024-03-07T05:37:34;32.95;;;15.43;;
74528;SDS011;63009;52.584;5.932;2024-03-07T05:39:59;26.60;;;12.82;;
74528;SDS011;63009;52.584;5.932;2024-03-07T05:42:27;30.60;;;14.52;;
74528;SDS011;63009;52.584;5.932;2024-03-07T05:44:54;30.30;;;14.70;;
74528;SDS011;63009;52.584;5.932;2024-03-07T05:47:20;29.42;;;13.77;;
74528;SDS011;63009;52.584;5.932;2024-03-07T05:49:46;26.38;;;13.75;;
74528;SDS011;63009;52.584;5.932;2024-03-07T05:52:11;31.90;;;14.18;;
74528;SDS011;63009;52.584;5.932;2024-03-07T05:54:37;32.22;;;15.70;;
74528;SDS011;63009;52.584;5.932;2024-03-07T05:57:02;30.23;;;14.23;;
74528;SDS011;63009;52.584;5.932;2024-03-07T05:59:28;30.80;;;14.25;;
74528;SDS011;63009;52.584;5.932;2024-03-07T06:01:54;28.83;;;14.52;;
74528;SDS011;63009;52.584;5.932;2024-03-07T06:04:20;30.42;;;13.98;;
74528;SDS011;63009;52.584;5.932;2024-03-07T06:06:46;28.40;;;13.60;;
74528;SDS011;63009;52.584;5.932;2024-03-07T06:09:12;30.67;;;14.25;;
74528;SDS011;63009;52.584;5.932;2024-03-07T06:11:39;32.10;;;15.82;;
74528;SDS011;63009;52.584;5.932;2024-03-07T06:14:07;27.88;;;13.65;;
74528;SDS011;63009;52.584;5.932;2024-03-07T06:16:36;28.25;;;13.82;;
74528;SDS011;63009;52.584;5.932;2024-03-07T06:19:03;29.40;;;13.93;;
74528;SDS011;63009;52.584;5.932;2024-03-07T06:21:29;27.95;;;14.25;;
74528;SDS011;63009;52.584;5.932;2024-03-07T06:23:56;31.08;;;14.10;;
74528;SDS011;63009;52.584;5.932;2024-03-07T06:29:20;27.92;;;13.07;;
74528;SDS011;63009;52.584;5.932;2024-03-07T06:31:46;26.00;;;12.13;;
74528;SDS011;63009;52.584;5.932;2024-03-07T06:34:12;28.15;;;14.05;;
74528;SDS011;63009;52.584;5.932;2024-03-07T06:36:38;25.80;;;12.27;;
74528;SDS011;63009;52.584;5.932;2024-03-07T06:39:05;27.27;;;12.55;;
74528;SDS011;63009;52.584;5.932;2024-03-07T06:41:34;26.80;;;13.40;;
74528;SDS011;63009;52.584;5.932;2024-03-07T06:44:00;27.38;;;12.00;;
74528;SDS011;63009;52.584;5.932;2024-03-07T06:46:26;24.33;;;12.10;;
74528;SDS011;63009;52.584;5.932;2024-03-07T06:48:51;25.60;;;12.80;;
74528;SDS011;63009;52.584;5.932;2024-03-07T06:51:17;31.90;;;13.60;;
74528;SDS011;63009;52.584;5.932;2024-03-07T06:53:43;27.92;;;12.82;;
74528;SDS011;63009;52.584;5.932;2024-03-07T06:56:08;29.40;;;13.32;;
74528;SDS011;63009;52.584;5.932;2024-03-07T06:58:34;30.48;;;14.23;;
74528;SDS011;63009;52.584;5.932;2024-03-07T07:00:59;21.92;;;12.27;;
74528;SDS011;63009;52.584;5.932;2024-03-07T07:03:26;27.58;;;13.23;;
74528;SDS011;63009;52.584;5.932;2024-03-07T07:05:53;25.45;;;12.50;;
74528;SDS011;63009;52.584;5.932;2024-03-07T07:08:22;28.75;;;14.35;;
74528;SDS011;63009;52.584;5.932;2024-03-07T07:10:47;29.33;;;14.10;;
74528;SDS011;63009;52.584;5.932;2024-03-07T07:13:13;29.80;;;14.20;;
74528;SDS011;63009;52.584;5.932;2024-03-07T07:15:38;28.67;;;13.55;;
74528;SDS011;63009;52.584;5.932;2024-03-07T07:18:04;29.25;;;14.85;;
74528;SDS011;63009;52.584;5.932;2024-03-07T07:20:31;27.08;;;13.63;;
74528;SDS011;63009;52.584;5.932;2024-03-07T07:22:59;25.15;;;12.55;;
74528;SDS011;63009;52.584;5.932;2024-03-07T07:25:25;27.40;;;12.75;;
74528;SDS011;63009;52.584;5.932;2024-03-07T07:27:52;28.55;;;14.00;;
74528;SDS011;63009;52.584;5.932;2024-03-07T07:30:19;28.17;;;13.63;;
74528;SDS011;63009;52.584;5.932;2024-03-07T07:32:48;29.52;;;14.18;;
74528;SDS011;63009;52.584;5.932;2024-03-07T07:35:15;27.38;;;12.73;;
74528;SDS011;63009;52.584;5.932;2024-03-07T07:37:40;25.40;;;13.38;;
74528;SDS011;63009;52.584;5.932;2024-03-07T07:40:07;32.03;;;15.15;;
74528;SDS011;63009;52.584;5.932;2024-03-07T07:42:37;24.83;;;13.40;;
74528;SDS011;63009;52.584;5.932;2024-03-07T07:45:04;25.10;;;14.02;;
74528;SDS011;63009;52.584;5.932;2024-03-07T07:47:36;27.10;;;13.20;;
74528;SDS011;63009;52.584;5.932;2024-03-07T07:50:06;23.92;;;11.68;;
74528;SDS011;63009;52.584;5.932;2024-03-07T07:52:47;25.70;;;13.10;;
74528;SDS011;63009;52.584;5.932;2024-03-07T07:55:15;23.45;;;12.55;;
74528;SDS011;63009;52.584;5.932;2024-03-07T07:57:45;24.60;;;13.02;;
74528;SDS011;63009;52.584;5.932;2024-03-07T08:00:25;24.38;;;11.10;;
74528;SDS011;63009;52.584;5.932;2024-03-07T08:02:57;19.70;;;10.70;;
74528;SDS011;63009;52.584;5.932;2024-03-07T08:05:23;22.45;;;12.15;;
74528;SDS011;63009;52.584;5.932;2024-03-07T08:07:50;22.77;;;11.85;;
74528;SDS011;63009;52.584;5.932;2024-03-07T08:10:19;24.05;;;13.05;;
74528;SDS011;63009;52.584;5.932;2024-03-07T08:12:45;23.42;;;11.55;;
74528;SDS011;63009;52.584;5.932;2024-03-07T08:15:11;26.17;;;12.27;;
74528;SDS011;63009;52.584;5.932;2024-03-07T08:17:47;24.50;;;11.55;;
74528;SDS011;63009;52.584;5.932;2024-03-07T08:20:17;24.20;;;11.32;;
74528;SDS011;63009;52.584;5.932;2024-03-07T08:22:44;24.23;;;13.27;;
74528;SDS011;63009;52.584;5.932;2024-03-07T08:25:23;23.35;;;12.25;;
74528;SDS011;63009;52.584;5.932;2024-03-07T08:27:50;24.45;;;12.98;;
74528;SDS011;63009;52.584;5.932;2024-03-07T08:30:17;20.63;;;10.57;;
74528;SDS011;63009;52.584;5.932;2024-03-07T08:32:49;19.52;;;10.20;;
74528;SDS011;63009;52.584;5.932;2024-03-07T08:35:19;22.02;;;12.00;;
74528;SDS011;63009;52.584;5.932;2024-03-07T08:37:47;23.15;;;11.05;;
74528;SDS011;63009;52.584;5.932;2024-03-07T08:40:17;22.38;;;11.30;;
74528;SDS011;63009;52.584;5.932;2024-03-07T08:42:47;21.55;;;11.55;;
74528;SDS011;63009;52.584;5.932;2024-03-07T08:45:14;19.33;;;10.60;;
74528;SDS011;63009;52.584;5.932;2024-03-07T08:47:44;18.00;;;10.43;;
74528;SDS011;63009;52.584;5.932;2024-03-07T08:50:10;21.23;;;11.07;;
74528;SDS011;63009;52.584;5.932;2024-03-07T08:52:36;20.27;;;10.57;;
74528;SDS011;63009;52.584;5.932;2024-03-07T08:55:05;19.90;;;10.50;;
74528;SDS011;63009;52.584;5.932;2024-03-07T08:57:34;21.17;;;11.20;;
74528;SDS011;63009;52.584;5.932;2024-03-07T08:59:59;20.20;;;10.38;;
74528;SDS011;63009;52.584;5.932;2024-03-07T09:02:26;19.83;;;10.25;;
74528;SDS011;63009;52.584;5.932;2024-03-07T09:04:51;20.95;;;10.23;;
74528;SDS011;63009;52.584;5.932;2024-03-07T09:07:17;18.52;;;10.93;;
74528;SDS011;63009;52.584;5.932;2024-03-07T09:09:42;20.00;;;10.68;;
74528;SDS011;63009;52.584;5.932;2024-03-07T09:12:10;19.15;;;10.90;;
74528;SDS011;63009;52.584;5.932;2024-03-07T09:14:36;22.48;;;11.57;;
74528;SDS011;63009;52.584;5.932;2024-03-07T09:17:02;19.42;;;10.57;;
74528;SDS011;63009;52.584;5.932;2024-03-07T09:19:29;18.75;;;10.38;;
74528;SDS011;63009;52.584;5.932;2024-03-07T09:21:55;17.42;;;9.95;;
74528;SDS011;63009;52.584;5.932;2024-03-07T09:24:21;19.55;;;9.50;;
74528;SDS011;63009;52.584;5.932;2024-03-07T09:26:50;19.30;;;10.27;;
74528;SDS011;63009;52.584;5.932;2024-03-07T09:29:16;20.73;;;10.55;;
74528;SDS011;63009;52.584;5.932;2024-03-07T09:31:43;18.95;;;10.25;;
74528;SDS011;63009;52.584;5.932;2024-03-07T09:34:09;20.00;;;10.85;;
74528;SDS011;63009;52.584;5.932;2024-03-07T09:36:34;20.42;;;10.57;;
74528;SDS011;63009;52.584;5.932;2024-03-07T09:39:00;18.50;;;11.15;;
74528;SDS011;63009;52.584;5.932;2024-03-07T09:41:26;18.77;;;10.35;;
74528;SDS011;63009;52.584;5.932;2024-03-07T09:43:52;19.58;;;10.55;;
74528;SDS011;63009;52.584;5.932;2024-03-07T09:46:23;21.45;;;10.77;;
74528;SDS011;63009;52.584;5.932;2024-03-07T09:48:54;21.58;;;10.60;;
74528;SDS011;63009;52.584;5.932;2024-03-07T09:51:21;23.55;;;11.05;;
74528;SDS011;63009;52.584;5.932;2024-03-07T09:53:50;19.70;;;10.25;;
74528;SDS011;63009;52.584;5.932;2024-03-07T09:56:20;22.13;;;11.05;;
74528;SDS011;63009;52.584;5.932;2024-03-07T09:58:49;21.60;;;10.60;;
74528;SDS011;63009;52.584;5.932;2024-03-07T10:01:25;19.92;;;10.70;;
74528;SDS011;63009;52.584;5.932;2024-03-07T10:03:58;21.67;;;12.13;;
74528;SDS011;63009;52.584;5.932;2024-03-07T10:06:35;22.20;;;12.18;;
74528;SDS011;63009;52.584;5.932;2024-03-07T10:09:01;21.38;;;10.88;;
74528;SDS011;63009;52.584;5.932;2024-03-07T10:11:29;24.00;;;12.63;;
74528;SDS011;63009;52.584;5.932;2024-03-07T10:13:57;21.63;;;10.70;;
74528;SDS011;63009;52.584;5.932;2024-03-07T10:16:22;24.65;;;12.18;;
74528;SDS011;63009;52.584;5.932;2024-03-07T10:18:48;19.17;;;10.13;;
74528;SDS011;63009;52.584;5.932;2024-03-07T10:21:15;24.75;;;13.10;;
74528;SDS011;63009;52.584;5.932;2024-03-07T10:23:47;22.75;;;11.65;;
74528;SDS011;63009;52.584;5.932;2024-03-07T10:26:18;25.00;;;13.90;;
74528;SDS011;63009;52.584;5.932;2024-03-07T10:28:44;24.42;;;13.50;;
74528;SDS011;63009;52.584;5.932;2024-03-07T10:31:10;25.90;;;14.27;;
74528;SDS011;63009;52.584;5.932;2024-03-07T10:33:39;23.35;;;12.63;;
74528;SDS011;63009;52.584;5.932;2024-03-07T10:36:08;23.95;;;12.57;;
74528;SDS011;63009;52.584;5.932;2024-03-07T10:38:38;24.52;;;13.48;;
74528;SDS011;63009;52.584;5.932;2024-03-07T10:41:04;25.27;;;13.45;;
74528;SDS011;63009;52.584;5.932;2024-03-07T10:43:34;25.45;;;14.60;;
74528;SDS011;63009;52.584;5.932;2024-03-07T10:46:05;25.27;;;13.90;;
74528;SDS011;63009;52.584;5.932;2024-03-07T10:48:34;26.33;;;12.48;;
74528;SDS011;63009;52.584;5.932;2024-03-07T10:56:45;25.30;;;13.25;;
74528;SDS011;63009;52.584;5.932;2024-03-07T10:59:26;24.33;;;12.48;;
74528;SDS011;63009;52.584;5.932;2024-03-07T11:04:49;23.67;;;12.32;;
74528;SDS011;63009;52.584;5.932;2024-03-07T11:07:17;24.35;;;13.10;;
74528;SDS011;63009;52.584;5.932;2024-03-07T11:12:12;28.48;;;14.00;;
74528;SDS011;63009;52.584;5.932;2024-03-07T11:14:38;25.92;;;12.63;;
74528;SDS011;63009;52.584;5.932;2024-03-07T11:17:04;25.40;;;11.77;;
74528;SDS011;63009;52.584;5.932;2024-03-07T11:19:31;25.83;;;12.98;;
74528;SDS011;63009;52.584;5.932;2024-03-07T11:22:01;28.35;;;12.70;;
74528;SDS011;63009;52.584;5.932;2024-03-07T11:24:30;28.50;;;11.43;;
74528;SDS011;63009;52.584;5.932;2024-03-07T11:26:58;25.33;;;12.98;;
74528;SDS011;63009;52.584;5.932;2024-03-07T11:29:40;24.00;;;12.23;;
74528;SDS011;63009;52.584;5.932;2024-03-07T11:32:10;24.42;;;11.40;;
74528;SDS011;63009;52.584;5.932;2024-03-07T11:34:45;26.92;;;13.15;;
74528;SDS011;63009;52.584;5.932;2024-03-07T11:37:17;26.75;;;13.73;;
74528;SDS011;63009;52.584;5.932;2024-03-07T11:39:47;25.17;;;11.52;;
74528;SDS011;63009;52.584;5.932;2024-03-07T11:44:53;27.23;;;13.02;;
74528;SDS011;63009;52.584;5.932;2024-03-07T11:47:21;26.70;;;13.68;;
74528;SDS011;63009;52.584;5.932;2024-03-07T11:50:00;25.92;;;13.27;;
74528;SDS011;63009;52.584;5.932;2024-03-07T11:52:27;22.90;;;12.40;;
74528;SDS011;63009;52.584;5.932;2024-03-07T11:54:52;24.40;;;12.65;;
74528;SDS011;63009;52.584;5.932;2024-03-07T11:57:18;25.27;;;12.27;;
74528;SDS011;63009;52.584;5.932;2024-03-07T11:59:44;24.98;;;12.48;;
74528;SDS011;63009;52.584;5.932;2024-03-07T12:02:15;23.08;;;11.75;;
74528;SDS011;63009;52.584;5.932;2024-03-07T12:04:44;24.92;;;11.93;;
74528;SDS011;63009;52.584;5.932;2024-03-07T12:07:09;24.67;;;11.82;;
74528;SDS011;63009;52.584;5.932;2024-03-07T12:09:42;25.38;;;12.15;;
74528;SDS011;63009;52.584;5.932;2024-03-07T12:12:10;25.27;;;11.55;;
74528;SDS011;63009;52.584;5.932;2024-03-07T12:14:37;23.17;;;11.30;;
74528;SDS011;63009;52.584;5.932;2024-03-07T12:17:03;25.33;;;10.35;;
74528;SDS011;63009;52.584;5.932;2024-03-07T12:19:34;21.23;;;10.55;;
74528;SDS011;63009;52.584;5.932;2024-03-07T12:22:03;24.13;;;12.68;;
74528;SDS011;63009;52.584;5.932;2024-03-07T12:24:34;23.88;;;10.98;;
74528;SDS011;63009;52.584;5.932;2024-03-07T12:27:08;20.10;;;10.85;;
74528;SDS011;63009;52.584;5.932;2024-03-07T12:29:35;21.88;;;10.65;;
74528;SDS011;63009;52.584;5.932;2024-03-07T12:32:08;21.95;;;11.35;;
74528;SDS011;63009;52.584;5.932;2024-03-07T12:34:38;22.27;;;11.30;;
74528;SDS011;63009;52.584;5.932;2024-03-07T12:37:06;20.55;;;10.25;;
74528;SDS011;63009;52.584;5.932;2024-03-07T12:39:32;23.75;;;11.95;;
74528;SDS011;63009;52.584;5.932;2024-03-07T12:42:04;22.23;;;10.52;;
74528;SDS011;63009;52.584;5.932;2024-03-07T12:44:40;21.15;;;11.38;;
74528;SDS011;63009;52.584;5.932;2024-03-07T12:47:11;23.50;;;11.82;;
74528;SDS011;63009;52.584;5.932;2024-03-07T12:49:40;21.65;;;11.07;;
74528;SDS011;63009;52.584;5.932;2024-03-07T12:52:07;21.15;;;10.93;;
74528;SDS011;63009;52.584;5.932;2024-03-07T12:54:33;20.83;;;10.23;;
74528;SDS011;63009;52.584;5.932;2024-03-07T12:56:59;22.27;;;11.32;;
74528;SDS011;63009;52.584;5.932;2024-03-07T12:59:25;22.30;;;11.88;;
74528;SDS011;63009;52.584;5.932;2024-03-07T13:01:50;24.25;;;11.88;;
74528;SDS011;63009;52.584;5.932;2024-03-07T13:04:16;22.98;;;11.50;;
74528;SDS011;63009;52.584;5.932;2024-03-07T13:06:42;20.90;;;10.25;;
74528;SDS011;63009;52.584;5.932;2024-03-07T13:09:11;19.85;;;9.48;;
74528;SDS011;63009;52.584;5.932;2024-03-07T13:11:40;18.60;;;10.68;;
74528;SDS011;63009;52.584;5.932;2024-03-07T13:14:12;20.52;;;11.00;;
74528;SDS011;63009;52.584;5.932;2024-03-07T13:16:39;22.42;;;11.80;;
74528;SDS011;63009;52.584;5.932;2024-03-07T13:19:08;22.83;;;11.35;;
74528;SDS011;63009;52.584;5.932;2024-03-07T13:21:34;21.88;;;11.15;;
74528;SDS011;63009;52.584;5.932;2024-03-07T13:24:01;22.52;;;11.38;;
74528;SDS011;63009;52.584;5.932;2024-03-07T13:26:27;20.13;;;11.45;;
74528;SDS011;63009;52.584;5.932;2024-03-07T13:28:55;19.88;;;10.43;;
74528;SDS011;63009;52.584;5.932;2024-03-07T13:31:26;21.00;;;10.65;;
74528;SDS011;63009;52.584;5.932;2024-03-07T13:33:52;21.35;;;10.13;;
74528;SDS011;63009;52.584;5.932;2024-03-07T13:36:18;21.13;;;10.60;;
74528;SDS011;63009;52.584;5.932;2024-03-07T13:38:50;21.85;;;11.48;;
74528;SDS011;63009;52.584;5.932;2024-03-07T13:41:20;20.50;;;10.23;;
74528;SDS011;63009;52.584;5.932;2024-03-07T13:43:46;19.70;;;10.40;;
74528;SDS011;63009;52.584;5.932;2024-03-07T13:46:13;23.27;;;10.93;;
74528;SDS011;63009;52.584;5.932;2024-03-07T13:48:39;21.50;;;10.13;;
74528;SDS011;63009;52.584;5.932;2024-03-07T13:51:07;22.63;;;11.25;;
74528;SDS011;63009;52.584;5.932;2024-03-07T13:53:40;21.85;;;11.30;;
74528;SDS011;63009;52.584;5.932;2024-03-07T13:56:42;21.50;;;10.52;;
74528;SDS011;63009;52.584;5.932;2024-03-07T13:59:26;21.48;;;11.02;;
74528;SDS011;63009;52.584;5.932;2024-03-07T14:02:09;22.02;;;11.93;;
74528;SDS011;63009;52.584;5.932;2024-03-07T14:07:48;23.70;;;11.25;;
74528;SDS011;63009;52.584;5.932;2024-03-07T14:27:56;23.63;;;11.07;;
74528;SDS011;63009;52.584;5.932;2024-03-07T14:33:32;24.00;;;10.63;;
74528;SDS011;63009;52.584;5.932;2024-03-07T14:36:15;21.35;;;10.05;;
74528;SDS011;63009;52.584;5.932;2024-03-07T14:38:53;27.23;;;11.75;;
74528;SDS011;63009;52.584;5.932;2024-03-07T14:41:24;23.02;;;11.13;;
74528;SDS011;63009;52.584;5.932;2024-03-07T14:44:11;22.88;;;10.50;;
74528;SDS011;63009;52.584;5.932;2024-03-07T14:46:39;22.73;;;10.68;;
74528;SDS011;63009;52.584;5.932;2024-03-07T14:49:05;24.85;;;11.20;;
74528;SDS011;63009;52.584;5.932;2024-03-07T14:51:33;23.83;;;11.27;;
74528;SDS011;63009;52.584;5.932;2024-03-07T14:53:59;25.55;;;11.02;;
74528;SDS011;63009;52.584;5.932;2024-03-07T14:56:26;23.10;;;10.70;;
74528;SDS011;63009;52.584;5.932;2024-03-07T14:58:51;24.92;;;12.05;;
74528;SDS011;63009;52.584;5.932;2024-03-07T15:01:17;22.15;;;12.07;;
74528;SDS011;63009;52.584;5.932;2024-03-07T15:03:42;21.58;;;11.25;;
74528;SDS011;63009;52.584;5.932;2024-03-07T15:06:10;24.52;;;10.70;;
74528;SDS011;63009;52.584;5.932;2024-03-07T15:08:39;25.00;;;11.57;;